sensor_id;sensor_type;location;lat;lon;timestamp;temperature;humidity
75824;DHT22;64457;51.976;9.834;2024-01-07T00:01:52;5.30;97.60
75824;DHT22;64457;51.976;9.834;2024-01-07T00:04:19;5.10;98.10
75824;DHT22;64457;51.976;9.834;2024-01-07T00:06:47;5.20;98.10
75824;DHT22;64457;51.976;9.834;2024-01-07T00:09:15;5.00;98.90
75824;DHT22;64457;51.976;9.834;2024-01-07T00:11:43;5.10;98.30
75824;DHT22;64457;51.976;9.834;2024-01-07T00:14:15;5.20;98.50
75824;DHT22;64457;51.976;9.834;2024-01-07T00:16:44;5.30;98.20
75824;DHT22;64457;51.976;9.834;2024-01-07T00:19:12;5.30;97.50
75824;DHT22;64457;51.976;9.834;2024-01-07T00:21:39;5.30;98.00
75824;DHT22;64457;51.976;9.834;2024-01-07T00:24:07;5.60;98.10
75824;DHT22;64457;51.976;9.834;2024-01-07T00:26:34;5.90;97.80
75824;DHT22;64457;51.976;9.834;2024-01-07T00:29:02;5.60;97.20
75824;DHT22;64457;51.976;9.834;2024-01-07T00:31:32;5.60;97.60
75824;DHT22;64457;51.976;9.834;2024-01-07T00:34:00;5.60;97.70
75824;DHT22;64457;51.976;9.834;2024-01-07T00:36:28;5.30;98.00
75824;DHT22;64457;51.976;9.834;2024-01-07T00:38:56;5.10;98.40
75824;DHT22;64457;51.976;9.834;2024-01-07T00:41:24;4.80;98.60
75824;DHT22;64457;51.976;9.834;2024-01-07T00:43:52;5.00;98.70
75824;DHT22;64457;51.976;9.834;2024-01-07T00:46:21;5.20;98.30
75824;DHT22;64457;51.976;9.834;2024-01-07T00:48:50;5.30;97.70
75824;DHT22;64457;51.976;9.834;2024-01-07T00:51:18;5.40;98.00
75824;DHT22;64457;51.976;9.834;2024-01-07T00:53:46;5.50;97.70
75824;DHT22;64457;51.976;9.834;2024-01-07T00:56:13;5.20;97.20
75824;DHT22;64457;51.976;9.834;2024-01-07T00:58:41;5.10;98.00
75824;DHT22;64457;51.976;9.834;2024-01-07T01:01:09;5.30;98.00
75824;DHT22;64457;51.976;9.834;2024-01-07T01:03:36;5.30;97.70
75824;DHT22;64457;51.976;9.834;2024-01-07T01:06:06;5.20;97.60
75824;DHT22;64457;51.976;9.834;2024-01-07T01:08:35;5.40;97.90
75824;DHT22;64457;51.976;9.834;2024-01-07T01:11:03;5.30;97.10
75824;DHT22;64457;51.976;9.834;2024-01-07T01:13:31;5.10;97.70
75824;DHT22;64457;51.976;9.834;2024-01-07T01:15:58;5.10;97.80
75824;DHT22;64457;51.976;9.834;2024-01-07T01:18:26;4.90;98.00
75824;DHT22;64457;51.976;9.834;2024-01-07T01:20:53;4.80;98.40
75824;DHT22;64457;51.976;9.834;2024-01-07T01:23:25;4.80;98.50
75824;DHT22;64457;51.976;9.834;2024-01-07T01:25:52;4.70;98.30
75824;DHT22;64457;51.976;9.834;2024-01-07T01:28:20;4.70;98.70
75824;DHT22;64457;51.976;9.834;2024-01-07T01:30:48;4.90;98.40
75824;DHT22;64457;51.976;9.834;2024-01-07T01:33:16;5.10;98.40
75824;DHT22;64457;51.976;9.834;2024-01-07T01:35:43;5.20;98.00
75824;DHT22;64457;51.976;9.834;2024-01-07T01:38:11;5.20;97.90
75824;DHT22;64457;51.976;9.834;2024-01-07T01:40:40;4.90;97.70
75824;DHT22;64457;51.976;9.834;2024-01-07T01:43:08;5.10;97.90
75824;DHT22;64457;51.976;9.834;2024-01-07T01:45:35;5.10;97.50
75824;DHT22;64457;51.976;9.834;2024-01-07T01:48:05;5.10;97.80
75824;DHT22;64457;51.976;9.834;2024-01-07T01:50:33;5.20;97.50
75824;DHT22;64457;51.976;9.834;2024-01-07T01:53:01;5.20;97.50
75824;DHT22;64457;51.976;9.834;2024-01-07T01:55:29;5.40;97.30
75824;DHT22;64457;51.976;9.834;2024-01-07T01:58:00;5.30;96.90
75824;DHT22;64457;51.976;9.834;2024-01-07T02:00:29;5.30;97.20
75824;DHT22;64457;51.976;9.834;2024-01-07T02:02:57;5.20;96.60
75824;DHT22;64457;51.976;9.834;2024-01-07T02:05:26;4.90;97.10
75824;DHT22;64457;51.976;9.834;2024-01-07T02:07:55;4.80;97.20
75824;DHT22;64457;51.976;9.834;2024-01-07T02:10:23;4.80;96.90
75824;DHT22;64457;51.976;9.834;2024-01-07T02:12:50;4.80;96.80
75824;DHT22;64457;51.976;9.834;2024-01-07T02:15:22;4.80;97.00
75824;DHT22;64457;51.976;9.834;2024-01-07T02:17:50;4.70;97.00
75824;DHT22;64457;51.976;9.834;2024-01-07T02:20:18;4.80;96.80
75824;DHT22;64457;51.976;9.834;2024-01-07T02:22:45;4.90;96.90
75824;DHT22;64457;51.976;9.834;2024-01-07T02:25:14;4.60;96.90
75824;DHT22;64457;51.976;9.834;2024-01-07T02:27:42;4.40;97.60
75824;DHT22;64457;51.976;9.834;2024-01-07T02:30:12;4.50;97.90
75824;DHT22;64457;51.976;9.834;2024-01-07T02:32:40;4.70;97.20
75824;DHT22;64457;51.976;9.834;2024-01-07T02:35:08;4.80;97.00
75824;DHT22;64457;51.976;9.834;2024-01-07T02:37:35;5.00;96.90
75824;DHT22;64457;51.976;9.834;2024-01-07T02:40:04;5.00;96.70
75824;DHT22;64457;51.976;9.834;2024-01-07T02:42:34;4.70;96.40
75824;DHT22;64457;51.976;9.834;2024-01-07T02:45:01;4.70;97.10
75824;DHT22;64457;51.976;9.834;2024-01-07T02:47:30;4.70;96.90
75824;DHT22;64457;51.976;9.834;2024-01-07T02:49:58;4.60;96.80
75824;DHT22;64457;51.976;9.834;2024-01-07T02:52:25;4.70;96.80
75824;DHT22;64457;51.976;9.834;2024-01-07T02:54:53;4.70;96.50
75824;DHT22;64457;51.976;9.834;2024-01-07T02:57:21;4.70;96.70
75824;DHT22;64457;51.976;9.834;2024-01-07T02:59:50;4.80;96.70
75824;DHT22;64457;51.976;9.834;2024-01-07T03:02:18;4.60;96.70
75824;DHT22;64457;51.976;9.834;2024-01-07T03:04:44;4.40;96.50
75824;DHT22;64457;51.976;9.834;2024-01-07T03:07:13;4.50;97.00
75824;DHT22;64457;51.976;9.834;2024-01-07T03:09:41;4.60;96.60
75824;DHT22;64457;51.976;9.834;2024-01-07T03:12:08;4.40;96.80
75824;DHT22;64457;51.976;9.834;2024-01-07T03:14:36;4.40;96.40
75824;DHT22;64457;51.976;9.834;2024-01-07T03:17:05;4.40;96.90
75824;DHT22;64457;51.976;9.834;2024-01-07T03:19:33;4.40;96.70
75824;DHT22;64457;51.976;9.834;2024-01-07T03:22:00;4.40;97.00
75824;DHT22;64457;51.976;9.834;2024-01-07T03:24:28;4.40;96.70
75824;DHT22;64457;51.976;9.834;2024-01-07T03:26:55;4.00;96.70
75824;DHT22;64457;51.976;9.834;2024-01-07T03:29:24;3.90;97.60
75824;DHT22;64457;51.976;9.834;2024-01-07T03:31:52;3.80;97.30
75824;DHT22;64457;51.976;9.834;2024-01-07T03:34:21;4.20;97.50
75824;DHT22;64457;51.976;9.834;2024-01-07T03:36:49;4.40;97.10
75824;DHT22;64457;51.976;9.834;2024-01-07T03:39:16;4.60;96.50
75824;DHT22;64457;51.976;9.834;2024-01-07T03:41:45;4.70;96.60
75824;DHT22;64457;51.976;9.834;2024-01-07T03:44:12;4.50;96.00
75824;DHT22;64457;51.976;9.834;2024-01-07T03:46:40;4.30;96.30
75824;DHT22;64457;51.976;9.834;2024-01-07T03:49:08;4.40;96.10
75824;DHT22;64457;51.976;9.834;2024-01-07T03:51:37;4.40;96.10
75824;DHT22;64457;51.976;9.834;2024-01-07T03:54:04;4.30;95.70
75824;DHT22;64457;51.976;9.834;2024-01-07T03:56:32;4.00;96.60
75824;DHT22;64457;51.976;9.834;2024-01-07T03:59:00;4.20;96.70
75824;DHT22;64457;51.976;9.834;2024-01-07T04:01:28;4.10;95.90
75824;DHT22;64457;51.976;9.834;2024-01-07T04:03:56;4.10;96.60
75824;DHT22;64457;51.976;9.834;2024-01-07T04:06:24;4.40;96.20
75824;DHT22;64457;51.976;9.834;2024-01-07T04:08:52;4.10;95.50
75824;DHT22;64457;51.976;9.834;2024-01-07T04:11:20;3.80;95.50
75824;DHT22;64457;51.976;9.834;2024-01-07T04:13:48;3.70;96.00
75824;DHT22;64457;51.976;9.834;2024-01-07T04:16:16;3.70;96.20
75824;DHT22;64457;51.976;9.834;2024-01-07T04:18:44;3.90;96.30
75824;DHT22;64457;51.976;9.834;2024-01-07T04:21:12;4.10;96.10
75824;DHT22;64457;51.976;9.834;2024-01-07T04:23:40;3.90;95.50
75824;DHT22;64457;51.976;9.834;2024-01-07T04:26:13;3.60;95.80
75824;DHT22;64457;51.976;9.834;2024-01-07T04:28:41;3.60;95.90
75824;DHT22;64457;51.976;9.834;2024-01-07T04:31:10;3.60;96.50
75824;DHT22;64457;51.976;9.834;2024-01-07T04:33:37;3.80;96.50
75824;DHT22;64457;51.976;9.834;2024-01-07T04:36:06;3.80;96.50
75824;DHT22;64457;51.976;9.834;2024-01-07T04:38:34;3.70;95.90
75824;DHT22;64457;51.976;9.834;2024-01-07T04:41:02;3.50;96.40
75824;DHT22;64457;51.976;9.834;2024-01-07T04:43:34;3.20;96.10
75824;DHT22;64457;51.976;9.834;2024-01-07T04:46:02;3.50;96.80
75824;DHT22;64457;51.976;9.834;2024-01-07T04:48:30;3.70;96.10
75824;DHT22;64457;51.976;9.834;2024-01-07T04:50:58;3.40;96.30
75824;DHT22;64457;51.976;9.834;2024-01-07T04:53:25;3.50;96.50
75824;DHT22;64457;51.976;9.834;2024-01-07T04:55:52;3.60;96.00
75824;DHT22;64457;51.976;9.834;2024-01-07T04:58:20;3.80;96.20
75824;DHT22;64457;51.976;9.834;2024-01-07T05:00:49;4.00;96.30
75824;DHT22;64457;51.976;9.834;2024-01-07T05:03:16;4.10;95.80
75824;DHT22;64457;51.976;9.834;2024-01-07T05:05:44;4.00;95.50
75824;DHT22;64457;51.976;9.834;2024-01-07T05:08:12;4.10;95.40
75824;DHT22;64457;51.976;9.834;2024-01-07T05:10:40;3.90;95.20
75824;DHT22;64457;51.976;9.834;2024-01-07T05:13:08;3.80;95.50
75824;DHT22;64457;51.976;9.834;2024-01-07T05:15:36;3.90;95.70
75824;DHT22;64457;51.976;9.834;2024-01-07T05:18:09;4.00;95.60
75824;DHT22;64457;51.976;9.834;2024-01-07T05:20:37;3.90;95.70
75824;DHT22;64457;51.976;9.834;2024-01-07T05:23:05;3.90;95.10
75824;DHT22;64457;51.976;9.834;2024-01-07T05:25:32;3.80;95.40
75824;DHT22;64457;51.976;9.834;2024-01-07T05:28:00;3.70;95.70
75824;DHT22;64457;51.976;9.834;2024-01-07T05:30:28;3.60;95.50
75824;DHT22;64457;51.976;9.834;2024-01-07T05:32:56;3.60;95.80
75824;DHT22;64457;51.976;9.834;2024-01-07T05:35:25;3.60;95.80
75824;DHT22;64457;51.976;9.834;2024-01-07T05:37:53;3.70;95.70
75824;DHT22;64457;51.976;9.834;2024-01-07T05:40:21;3.70;95.30
75824;DHT22;64457;51.976;9.834;2024-01-07T05:42:50;3.70;94.70
75824;DHT22;64457;51.976;9.834;2024-01-07T05:45:17;3.50;95.30
75824;DHT22;64457;51.976;9.834;2024-01-07T05:47:46;3.40;94.80
75824;DHT22;64457;51.976;9.834;2024-01-07T05:50:13;3.40;95.20
75824;DHT22;64457;51.976;9.834;2024-01-07T05:52:46;3.30;95.00
75824;DHT22;64457;51.976;9.834;2024-01-07T05:55:13;3.40;95.20
75824;DHT22;64457;51.976;9.834;2024-01-07T05:57:43;3.40;94.70
75824;DHT22;64457;51.976;9.834;2024-01-07T06:00:12;3.40;94.90
75824;DHT22;64457;51.976;9.834;2024-01-07T06:02:41;3.60;94.90
75824;DHT22;64457;51.976;9.834;2024-01-07T06:05:10;3.90;94.30
75824;DHT22;64457;51.976;9.834;2024-01-07T06:07:37;3.80;93.50
75824;DHT22;64457;51.976;9.834;2024-01-07T06:10:07;3.60;93.70
75824;DHT22;64457;51.976;9.834;2024-01-07T06:12:35;3.60;94.00
75824;DHT22;64457;51.976;9.834;2024-01-07T06:15:03;3.50;93.70
75824;DHT22;64457;51.976;9.834;2024-01-07T06:17:32;3.30;94.00
75824;DHT22;64457;51.976;9.834;2024-01-07T06:19:59;3.30;93.90
75824;DHT22;64457;51.976;9.834;2024-01-07T06:22:27;3.30;94.10
75824;DHT22;64457;51.976;9.834;2024-01-07T06:24:55;3.40;93.70
75824;DHT22;64457;51.976;9.834;2024-01-07T06:27:24;3.60;93.80
75824;DHT22;64457;51.976;9.834;2024-01-07T06:29:52;3.70;93.90
75824;DHT22;64457;51.976;9.834;2024-01-07T06:32:20;3.50;93.00
75824;DHT22;64457;51.976;9.834;2024-01-07T06:34:48;3.20;93.40
75824;DHT22;64457;51.976;9.834;2024-01-07T06:37:16;3.40;93.60
75824;DHT22;64457;51.976;9.834;2024-01-07T06:39:43;3.30;93.40
75824;DHT22;64457;51.976;9.834;2024-01-07T06:42:10;3.30;93.30
75824;DHT22;64457;51.976;9.834;2024-01-07T06:44:40;2.80;93.00
75824;DHT22;64457;51.976;9.834;2024-01-07T06:47:08;2.80;93.80
75824;DHT22;64457;51.976;9.834;2024-01-07T06:49:35;2.80;93.50
75824;DHT22;64457;51.976;9.834;2024-01-07T06:52:04;2.70;93.10
75824;DHT22;64457;51.976;9.834;2024-01-07T06:54:35;2.50;93.30
75824;DHT22;64457;51.976;9.834;2024-01-07T06:57:02;2.60;94.00
75824;DHT22;64457;51.976;9.834;2024-01-07T06:59:31;3.00;93.10
75824;DHT22;64457;51.976;9.834;2024-01-07T07:02:00;3.10;93.40
75824;DHT22;64457;51.976;9.834;2024-01-07T07:04:28;3.10;93.20
75824;DHT22;64457;51.976;9.834;2024-01-07T07:06:58;3.10;93.10
75824;DHT22;64457;51.976;9.834;2024-01-07T07:09:26;3.20;92.90
75824;DHT22;64457;51.976;9.834;2024-01-07T07:11:53;3.10;92.30
75824;DHT22;64457;51.976;9.834;2024-01-07T07:14:21;3.20;93.30
75824;DHT22;64457;51.976;9.834;2024-01-07T07:16:48;3.20;92.90
75824;DHT22;64457;51.976;9.834;2024-01-07T07:19:17;3.10;92.80
75824;DHT22;64457;51.976;9.834;2024-01-07T07:21:45;3.20;93.20
75824;DHT22;64457;51.976;9.834;2024-01-07T07:24:13;3.20;93.10
75824;DHT22;64457;51.976;9.834;2024-01-07T07:26:40;3.20;93.10
75824;DHT22;64457;51.976;9.834;2024-01-07T07:29:09;2.80;92.70
75824;DHT22;64457;51.976;9.834;2024-01-07T07:31:36;2.90;93.40
75824;DHT22;64457;51.976;9.834;2024-01-07T07:34:05;3.00;93.30
75824;DHT22;64457;51.976;9.834;2024-01-07T07:36:34;3.00;92.80
75824;DHT22;64457;51.976;9.834;2024-01-07T07:39:02;2.90;92.60
75824;DHT22;64457;51.976;9.834;2024-01-07T07:41:32;2.90;92.70
75824;DHT22;64457;51.976;9.834;2024-01-07T07:43:59;2.80;93.00
75824;DHT22;64457;51.976;9.834;2024-01-07T07:46:26;2.60;93.00
75824;DHT22;64457;51.976;9.834;2024-01-07T07:48:54;2.70;92.80
75824;DHT22;64457;51.976;9.834;2024-01-07T07:51:21;2.70;92.50
75824;DHT22;64457;51.976;9.834;2024-01-07T07:53:51;2.60;92.30
75824;DHT22;64457;51.976;9.834;2024-01-07T07:56:18;2.80;92.80
75824;DHT22;64457;51.976;9.834;2024-01-07T07:58:46;2.90;92.20
75824;DHT22;64457;51.976;9.834;2024-01-07T08:01:14;2.80;91.50
75824;DHT22;64457;51.976;9.834;2024-01-07T08:03:42;2.50;91.50
75824;DHT22;64457;51.976;9.834;2024-01-07T08:06:10;2.50;92.40
75824;DHT22;64457;51.976;9.834;2024-01-07T08:08:38;2.40;91.80
75824;DHT22;64457;51.976;9.834;2024-01-07T08:11:08;2.30;91.60
75824;DHT22;64457;51.976;9.834;2024-01-07T08:13:36;2.30;92.00
75824;DHT22;64457;51.976;9.834;2024-01-07T08:16:04;2.40;92.60
75824;DHT22;64457;51.976;9.834;2024-01-07T08:18:33;2.60;92.50
75824;DHT22;64457;51.976;9.834;2024-01-07T08:21:00;2.30;91.70
75824;DHT22;64457;51.976;9.834;2024-01-07T08:23:28;2.20;92.20
75824;DHT22;64457;51.976;9.834;2024-01-07T08:25:56;2.20;91.90
75824;DHT22;64457;51.976;9.834;2024-01-07T08:28:25;2.40;92.10
75824;DHT22;64457;51.976;9.834;2024-01-07T08:30:54;2.20;91.80
75824;DHT22;64457;51.976;9.834;2024-01-07T08:33:21;2.10;91.60
75824;DHT22;64457;51.976;9.834;2024-01-07T08:35:51;2.00;91.20
75824;DHT22;64457;51.976;9.834;2024-01-07T08:38:18;1.90;91.20
75824;DHT22;64457;51.976;9.834;2024-01-07T08:40:46;2.10;91.70
75824;DHT22;64457;51.976;9.834;2024-01-07T08:43:14;2.30;91.70
75824;DHT22;64457;51.976;9.834;2024-01-07T08:45:45;2.60;91.00
75824;DHT22;64457;51.976;9.834;2024-01-07T08:48:13;2.50;90.50
75824;DHT22;64457;51.976;9.834;2024-01-07T08:50:42;2.40;90.50
75824;DHT22;64457;51.976;9.834;2024-01-07T08:53:09;2.50;90.60
75824;DHT22;64457;51.976;9.834;2024-01-07T08:55:38;2.70;90.50
75824;DHT22;64457;51.976;9.834;2024-01-07T08:58:06;3.10;90.70
75824;DHT22;64457;51.976;9.834;2024-01-07T09:00:34;3.00;89.00
75824;DHT22;64457;51.976;9.834;2024-01-07T09:03:03;3.20;89.60
75824;DHT22;64457;51.976;9.834;2024-01-07T09:05:32;2.90;89.70
75824;DHT22;64457;51.976;9.834;2024-01-07T09:08:00;2.80;90.10
75824;DHT22;64457;51.976;9.834;2024-01-07T09:10:28;2.70;89.60
75824;DHT22;64457;51.976;9.834;2024-01-07T09:12:55;2.60;90.00
75824;DHT22;64457;51.976;9.834;2024-01-07T09:15:23;2.50;90.60
75824;DHT22;64457;51.976;9.834;2024-01-07T09:17:51;2.70;90.70
75824;DHT22;64457;51.976;9.834;2024-01-07T09:20:20;3.10;90.60
75824;DHT22;64457;51.976;9.834;2024-01-07T09:22:47;3.30;89.50
75824;DHT22;64457;51.976;9.834;2024-01-07T09:25:15;3.40;90.00
75824;DHT22;64457;51.976;9.834;2024-01-07T09:27:43;3.30;90.10
75824;DHT22;64457;51.976;9.834;2024-01-07T09:30:11;3.30;90.10
75824;DHT22;64457;51.976;9.834;2024-01-07T09:32:41;3.40;89.40
75824;DHT22;64457;51.976;9.834;2024-01-07T09:35:09;3.50;88.60
75824;DHT22;64457;51.976;9.834;2024-01-07T09:37:37;3.80;88.50
75824;DHT22;64457;51.976;9.834;2024-01-07T09:40:06;3.80;88.60
75824;DHT22;64457;51.976;9.834;2024-01-07T09:42:35;3.90;89.30
75824;DHT22;64457;51.976;9.834;2024-01-07T09:45:04;4.00;88.20
75824;DHT22;64457;51.976;9.834;2024-01-07T09:47:37;4.00;88.40
75824;DHT22;64457;51.976;9.834;2024-01-07T09:50:06;3.70;88.00
75824;DHT22;64457;51.976;9.834;2024-01-07T09:52:37;3.10;87.70
75824;DHT22;64457;51.976;9.834;2024-01-07T09:55:09;3.30;89.10
75824;DHT22;64457;51.976;9.834;2024-01-07T09:57:41;3.00;88.50
75824;DHT22;64457;51.976;9.834;2024-01-07T10:00:12;2.90;90.10
75824;DHT22;64457;51.976;9.834;2024-01-07T10:02:41;2.90;90.10
75824;DHT22;64457;51.976;9.834;2024-01-07T10:05:09;3.00;90.20
75824;DHT22;64457;51.976;9.834;2024-01-07T10:07:38;3.10;90.00
75824;DHT22;64457;51.976;9.834;2024-01-07T10:10:13;3.20;89.70
75824;DHT22;64457;51.976;9.834;2024-01-07T10:12:43;3.50;90.20
75824;DHT22;64457;51.976;9.834;2024-01-07T10:15:12;3.70;88.80
75824;DHT22;64457;51.976;9.834;2024-01-07T10:17:41;3.20;86.40
75824;DHT22;64457;51.976;9.834;2024-01-07T10:20:10;3.00;89.80
75824;DHT22;64457;51.976;9.834;2024-01-07T10:22:40;3.10;89.90
75824;DHT22;64457;51.976;9.834;2024-01-07T10:25:08;3.20;89.40
75824;DHT22;64457;51.976;9.834;2024-01-07T10:27:37;3.30;90.30
75824;DHT22;64457;51.976;9.834;2024-01-07T10:30:06;3.30;89.70
75824;DHT22;64457;51.976;9.834;2024-01-07T10:32:36;3.30;90.00
75824;DHT22;64457;51.976;9.834;2024-01-07T10:35:05;3.50;90.10
75824;DHT22;64457;51.976;9.834;2024-01-07T10:37:35;3.60;88.50
75824;DHT22;64457;51.976;9.834;2024-01-07T10:40:06;3.60;88.50
75824;DHT22;64457;51.976;9.834;2024-01-07T10:42:35;3.70;88.40
75824;DHT22;64457;51.976;9.834;2024-01-07T10:45:02;3.40;87.70
75824;DHT22;64457;51.976;9.834;2024-01-07T10:47:32;3.30;90.00
75824;DHT22;64457;51.976;9.834;2024-01-07T10:50:02;3.50;90.30
75824;DHT22;64457;51.976;9.834;2024-01-07T10:52:33;3.40;90.30
75824;DHT22;64457;51.976;9.834;2024-01-07T10:55:09;3.60;89.70
75824;DHT22;64457;51.976;9.834;2024-01-07T10:57:42;3.90;89.70
75824;DHT22;64457;51.976;9.834;2024-01-07T11:00:13;3.90;89.10
75824;DHT22;64457;51.976;9.834;2024-01-07T11:02:53;3.60;90.10
75824;DHT22;64457;51.976;9.834;2024-01-07T11:05:31;3.90;89.40
75824;DHT22;64457;51.976;9.834;2024-01-07T11:08:06;4.00;89.50
75824;DHT22;64457;51.976;9.834;2024-01-07T11:10:44;3.80;89.30
75824;DHT22;64457;51.976;9.834;2024-01-07T11:13:33;3.70;90.40
75824;DHT22;64457;51.976;9.834;2024-01-07T11:16:04;3.60;90.00
75824;DHT22;64457;51.976;9.834;2024-01-07T11:18:38;3.50;90.00
75824;DHT22;64457;51.976;9.834;2024-01-07T11:21:07;3.50;90.40
75824;DHT22;64457;51.976;9.834;2024-01-07T11:23:35;3.40;90.20
75824;DHT22;64457;51.976;9.834;2024-01-07T11:26:07;3.30;90.80
75824;DHT22;64457;51.976;9.834;2024-01-07T11:28:46;3.00;90.70
75824;DHT22;64457;51.976;9.834;2024-01-07T11:31:16;3.10;90.90
75824;DHT22;64457;51.976;9.834;2024-01-07T11:33:46;3.10;91.20
75824;DHT22;64457;51.976;9.834;2024-01-07T11:36:15;3.50;91.00
75824;DHT22;64457;51.976;9.834;2024-01-07T11:38:44;3.60;91.10
75824;DHT22;64457;51.976;9.834;2024-01-07T11:41:14;3.70;91.00
75824;DHT22;64457;51.976;9.834;2024-01-07T11:43:53;3.50;91.30
75824;DHT22;64457;51.976;9.834;2024-01-07T11:46:23;3.50;91.40
75824;DHT22;64457;51.976;9.834;2024-01-07T11:48:53;3.50;91.50
75824;DHT22;64457;51.976;9.834;2024-01-07T11:51:24;3.70;91.20
75824;DHT22;64457;51.976;9.834;2024-01-07T11:53:52;3.90;91.20
75824;DHT22;64457;51.976;9.834;2024-01-07T11:56:36;3.80;91.20
75824;DHT22;64457;51.976;9.834;2024-01-07T11:59:04;3.90;91.20
75824;DHT22;64457;51.976;9.834;2024-01-07T12:01:32;4.00;91.00
75824;DHT22;64457;51.976;9.834;2024-01-07T12:04:01;3.90;91.50
75824;DHT22;64457;51.976;9.834;2024-01-07T12:06:29;3.80;91.40
75824;DHT22;64457;51.976;9.834;2024-01-07T12:08:59;3.80;91.40
75824;DHT22;64457;51.976;9.834;2024-01-07T12:11:27;3.50;91.60
75824;DHT22;64457;51.976;9.834;2024-01-07T12:13:56;3.40;91.60
75824;DHT22;64457;51.976;9.834;2024-01-07T12:16:26;3.20;92.00
75824;DHT22;64457;51.976;9.834;2024-01-07T12:18:54;3.10;92.30
75824;DHT22;64457;51.976;9.834;2024-01-07T12:21:23;3.30;92.60
75824;DHT22;64457;51.976;9.834;2024-01-07T12:23:53;3.50;92.10
75824;DHT22;64457;51.976;9.834;2024-01-07T12:26:26;3.50;92.00
75824;DHT22;64457;51.976;9.834;2024-01-07T12:28:58;3.60;91.90
75824;DHT22;64457;51.976;9.834;2024-01-07T12:31:30;3.70;91.60
75824;DHT22;64457;51.976;9.834;2024-01-07T12:33:59;3.80;91.30
75824;DHT22;64457;51.976;9.834;2024-01-07T12:36:30;3.70;91.40
75824;DHT22;64457;51.976;9.834;2024-01-07T12:38:58;3.70;91.50
75824;DHT22;64457;51.976;9.834;2024-01-07T12:41:26;3.80;91.60
75824;DHT22;64457;51.976;9.834;2024-01-07T12:43:56;3.70;91.50
75824;DHT22;64457;51.976;9.834;2024-01-07T12:46:25;3.80;91.90
75824;DHT22;64457;51.976;9.834;2024-01-07T12:48:54;4.10;91.20
75824;DHT22;64457;51.976;9.834;2024-01-07T12:51:22;4.10;91.00
75824;DHT22;64457;51.976;9.834;2024-01-07T12:53:49;4.10;91.00
75824;DHT22;64457;51.976;9.834;2024-01-07T12:56:17;4.00;91.10
75824;DHT22;64457;51.976;9.834;2024-01-07T12:58:45;3.80;91.40
75824;DHT22;64457;51.976;9.834;2024-01-07T13:01:14;3.70;91.40
75824;DHT22;64457;51.976;9.834;2024-01-07T13:03:41;3.50;91.80
75824;DHT22;64457;51.976;9.834;2024-01-07T13:06:09;3.40;92.10
75824;DHT22;64457;51.976;9.834;2024-01-07T13:08:38;3.30;92.00
75824;DHT22;64457;51.976;9.834;2024-01-07T13:11:05;3.40;92.30
75824;DHT22;64457;51.976;9.834;2024-01-07T13:13:34;3.40;92.00
75824;DHT22;64457;51.976;9.834;2024-01-07T13:16:02;3.40;91.90
75824;DHT22;64457;51.976;9.834;2024-01-07T13:18:31;3.50;92.20
75824;DHT22;64457;51.976;9.834;2024-01-07T13:21:00;3.60;92.50
75824;DHT22;64457;51.976;9.834;2024-01-07T13:23:32;3.60;92.20
75824;DHT22;64457;51.976;9.834;2024-01-07T13:26:00;3.80;92.10
75824;DHT22;64457;51.976;9.834;2024-01-07T13:28:32;4.00;91.80
75824;DHT22;64457;51.976;9.834;2024-01-07T13:30:59;4.00;91.80
75824;DHT22;64457;51.976;9.834;2024-01-07T13:33:27;3.90;91.60
75824;DHT22;64457;51.976;9.834;2024-01-07T13:35:56;3.80;91.80
75824;DHT22;64457;51.976;9.834;2024-01-07T13:38:24;3.60;92.30
75824;DHT22;64457;51.976;9.834;2024-01-07T13:40:53;3.60;92.30
75824;DHT22;64457;51.976;9.834;2024-01-07T13:43:22;3.70;92.10
75824;DHT22;64457;51.976;9.834;2024-01-07T13:45:51;3.60;92.10
75824;DHT22;64457;51.976;9.834;2024-01-07T13:48:19;3.60;92.00
75824;DHT22;64457;51.976;9.834;2024-01-07T13:50:46;3.40;92.30
75824;DHT22;64457;51.976;9.834;2024-01-07T13:53:16;3.50;92.50
75824;DHT22;64457;51.976;9.834;2024-01-07T13:55:44;3.50;92.50
75824;DHT22;64457;51.976;9.834;2024-01-07T13:58:12;3.60;92.60
75824;DHT22;64457;51.976;9.834;2024-01-07T14:00:41;3.70;92.40
75824;DHT22;64457;51.976;9.834;2024-01-07T14:03:09;3.60;92.50
75824;DHT22;64457;51.976;9.834;2024-01-07T14:05:36;3.70;92.50
75824;DHT22;64457;51.976;9.834;2024-01-07T14:08:05;3.60;92.40
75824;DHT22;64457;51.976;9.834;2024-01-07T14:10:34;3.40;93.10
75824;DHT22;64457;51.976;9.834;2024-01-07T14:13:04;3.40;93.00
75824;DHT22;64457;51.976;9.834;2024-01-07T14:15:32;3.40;93.50
75824;DHT22;64457;51.976;9.834;2024-01-07T14:18:02;3.40;93.30
75824;DHT22;64457;51.976;9.834;2024-01-07T14:20:30;3.50;93.50
75824;DHT22;64457;51.976;9.834;2024-01-07T14:22:57;3.40;93.50
75824;DHT22;64457;51.976;9.834;2024-01-07T14:25:26;3.50;93.40
75824;DHT22;64457;51.976;9.834;2024-01-07T14:27:55;3.60;93.30
75824;DHT22;64457;51.976;9.834;2024-01-07T14:30:23;3.70;93.10
75824;DHT22;64457;51.976;9.834;2024-01-07T14:32:53;3.80;93.00
75824;DHT22;64457;51.976;9.834;2024-01-07T14:35:20;3.80;93.00
75824;DHT22;64457;51.976;9.834;2024-01-07T14:37:50;3.70;93.10
75824;DHT22;64457;51.976;9.834;2024-01-07T14:40:18;3.50;93.50
75824;DHT22;64457;51.976;9.834;2024-01-07T14:42:46;3.30;93.70
75824;DHT22;64457;51.976;9.834;2024-01-07T14:45:15;3.30;94.30
75824;DHT22;64457;51.976;9.834;2024-01-07T14:47:43;3.30;93.90
75824;DHT22;64457;51.976;9.834;2024-01-07T14:50:12;3.40;93.90
75824;DHT22;64457;51.976;9.834;2024-01-07T14:52:41;3.30;94.00
75824;DHT22;64457;51.976;9.834;2024-01-07T14:55:09;3.30;94.00
75824;DHT22;64457;51.976;9.834;2024-01-07T14:57:36;3.20;94.10
75824;DHT22;64457;51.976;9.834;2024-01-07T15:00:05;3.30;94.10
75824;DHT22;64457;51.976;9.834;2024-01-07T15:02:35;3.30;94.00
75824;DHT22;64457;51.976;9.834;2024-01-07T15:05:03;3.30;94.10
75824;DHT22;64457;51.976;9.834;2024-01-07T15:07:32;3.40;93.90
75824;DHT22;64457;51.976;9.834;2024-01-07T15:10:00;3.40;94.00
75824;DHT22;64457;51.976;9.834;2024-01-07T15:12:27;3.50;93.70
75824;DHT22;64457;51.976;9.834;2024-01-07T15:15:01;3.60;93.70
75824;DHT22;64457;51.976;9.834;2024-01-07T15:17:31;3.70;93.40
75824;DHT22;64457;51.976;9.834;2024-01-07T15:20:02;3.70;93.50
75824;DHT22;64457;51.976;9.834;2024-01-07T15:22:30;3.80;93.40
75824;DHT22;64457;51.976;9.834;2024-01-07T15:25:01;3.90;92.90
75824;DHT22;64457;51.976;9.834;2024-01-07T15:27:28;3.80;93.00
75824;DHT22;64457;51.976;9.834;2024-01-07T15:29:56;3.60;93.30
75824;DHT22;64457;51.976;9.834;2024-01-07T15:32:25;3.60;93.40
75824;DHT22;64457;51.976;9.834;2024-01-07T15:34:54;3.70;93.60
75824;DHT22;64457;51.976;9.834;2024-01-07T15:37:24;3.50;93.80
75824;DHT22;64457;51.976;9.834;2024-01-07T15:39:52;3.60;93.90
75824;DHT22;64457;51.976;9.834;2024-01-07T15:42:20;3.60;93.60
75824;DHT22;64457;51.976;9.834;2024-01-07T15:44:50;3.50;93.80
75824;DHT22;64457;51.976;9.834;2024-01-07T15:47:18;3.50;93.90
75824;DHT22;64457;51.976;9.834;2024-01-07T15:49:45;3.40;94.70
75824;DHT22;64457;51.976;9.834;2024-01-07T15:52:13;3.20;94.50
75824;DHT22;64457;51.976;9.834;2024-01-07T15:54:42;3.30;94.50